createdAt,value
2019-04-25T00:01:15.747Z,52.47
2019-04-25T00:06:21.584Z,51.45
2019-04-25T00:11:26.495Z,51.85
2019-04-25T00:16:31.848Z,52.53
2019-04-25T00:21:37.039Z,52.40
2019-04-25T00:26:44.042Z,52.55
2019-04-25T00:31:48.006Z,50.60
2019-04-25T00:36:51.640Z,51.42
2019-04-25T00:41:55.330Z,53.98
2019-04-25T00:46:58.932Z,52.05
2019-04-25T00:52:02.493Z,52.27
2019-04-25T00:57:06.318Z,51.35
2019-04-25T01:02:28.172Z,52.60
2019-04-25T01:07:32.433Z,51.75
2019-04-25T01:12:37.322Z,53.13
2019-04-25T01:17:41.372Z,51.53
2019-04-25T01:22:45.772Z,51.48
2019-04-25T01:27:49.980Z,53.20
2019-04-25T01:32:54.539Z,52.60
2019-04-25T01:38:20.553Z,52.50
2019-04-25T01:43:25.831Z,51.48
2019-04-25T01:48:29.542Z,51.50
2019-04-25T01:53:33.943Z,53.23
2019-04-25T01:58:38.352Z,51.95
2019-04-25T02:03:42.091Z,52.75
2019-04-25T02:08:45.740Z,52.00
2019-04-25T02:13:51.284Z,51.80
2019-04-25T02:18:55.526Z,51.13
2019-04-25T02:24:00.199Z,50.80
2019-04-25T02:29:04.715Z,51.28
2019-04-25T02:34:08.827Z,53.28
2019-04-25T02:39:17.704Z,51.73
2019-04-25T02:44:21.480Z,52.25
2019-04-25T02:49:39.213Z,50.28
2019-04-25T02:54:41.155Z,51.23
2019-04-25T02:59:45.212Z,51.92
2019-04-25T03:04:49.000Z,51.53
2019-04-25T03:09:54.755Z,51.13
2019-04-25T03:15:00.055Z,51.50
2019-04-25T03:20:09.442Z,51.05
2019-04-25T03:25:13.667Z,52.58
2019-04-25T03:30:18.253Z,57.13
2019-04-25T03:35:23.203Z,51.98
2019-04-25T03:40:26.879Z,51.42
2019-04-25T03:45:30.475Z,51.30
2019-04-25T03:50:34.899Z,50.88
2019-04-25T03:55:38.620Z,51.30
2019-04-25T04:00:44.710Z,50.50
2019-04-25T04:05:48.546Z,51.93
2019-04-25T04:10:52.151Z,52.30
2019-04-25T04:15:55.863Z,51.83
2019-04-25T04:21:10.007Z,51.68
2019-04-25T04:26:14.503Z,52.20
2019-04-25T04:31:18.162Z,51.40
2019-04-25T04:36:21.799Z,51.58
2019-04-25T04:41:25.451Z,53.15
2019-04-25T04:46:29.056Z,52.78
2019-04-25T04:51:33.617Z,53.52
2019-04-25T04:56:37.320Z,53.75
2019-04-25T05:01:58.863Z,54.42
2019-04-25T05:07:11.009Z,55.63
2019-04-25T05:12:15.270Z,54.73
2019-04-25T05:17:19.744Z,54.08
2019-04-25T05:22:24.348Z,53.42
2019-04-25T05:27:37.549Z,53.45
2019-04-25T05:32:34.274Z,56.23
2019-04-25T05:37:38.067Z,58.23
2019-04-25T05:42:54.210Z,56.92
2019-04-25T05:47:57.946Z,55.70
2019-04-25T05:53:01.649Z,57.13
2019-04-25T05:58:05.452Z,57.25
2019-04-25T06:03:09.017Z,57.53
2019-04-25T06:08:14.156Z,56.35
2019-04-25T06:13:37.779Z,56.77
2019-04-25T06:18:45.926Z,57.58
2019-04-25T06:23:51.171Z,58.42
2019-04-25T06:28:59.482Z,59.00
2019-04-25T06:34:00.087Z,58.97
2019-04-25T06:39:04.429Z,57.98
2019-04-25T06:44:09.811Z,57.40
2019-04-25T06:49:17.576Z,57.03
2019-04-25T06:54:21.978Z,56.23
2019-04-25T06:59:27.597Z,56.50
2019-04-25T07:04:33.671Z,55.70
2019-04-25T07:09:37.151Z,54.87
2019-04-25T07:14:41.600Z,54.45
2019-04-25T07:19:45.296Z,54.65
2019-04-25T07:24:48.951Z,54.65
2019-04-25T07:29:54.255Z,54.67
2019-04-25T07:34:57.961Z,54.40
2019-04-25T07:40:01.746Z,54.73
2019-04-25T07:45:09.840Z,53.98
2019-04-25T07:50:15.369Z,60.30
2019-04-25T07:55:18.907Z,55.20
2019-04-25T08:00:24.523Z,54.93
2019-04-25T08:05:29.490Z,53.77
2019-04-25T08:10:39.613Z,53.08
2019-04-25T08:15:47.466Z,55.10
2019-04-25T08:20:51.208Z,52.47
2019-04-25T08:25:54.997Z,54.10
2019-04-25T08:30:59.005Z,53.35
2019-04-25T08:36:06.669Z,53.70
2019-04-25T08:41:07.959Z,53.60
2019-04-25T08:46:11.699Z,53.73
2019-04-25T08:51:17.051Z,53.38
2019-04-25T08:56:22.291Z,54.30
2019-04-25T09:01:27.611Z,53.07
2019-04-25T09:06:31.771Z,53.90
2019-04-25T09:11:38.048Z,53.50
2019-04-25T09:16:43.855Z,52.70
2019-04-25T09:21:49.470Z,52.30
2019-04-25T09:26:53.929Z,51.47
2019-04-25T09:31:57.775Z,52.62
2019-04-25T09:37:02.760Z,53.15
2019-04-25T09:42:06.971Z,52.90
2019-04-25T09:47:10.760Z,54.83
2019-04-25T09:52:16.063Z,53.85
2019-04-25T09:57:38.877Z,54.47
2019-04-25T10:02:43.311Z,54.40
2019-04-25T10:07:48.900Z,54.67
2019-04-25T10:12:54.527Z,55.03
2019-04-25T10:17:57.827Z,55.15
2019-04-25T10:23:01.588Z,54.58
2019-04-25T10:28:06.830Z,55.67
2019-04-25T10:33:10.664Z,54.80
2019-04-25T10:38:15.176Z,54.33
2019-04-25T10:43:21.557Z,54.00
2019-04-25T10:48:24.317Z,55.10
2019-04-25T10:53:28.009Z,55.85
2019-04-25T10:58:31.651Z,55.60
2019-04-25T11:03:37.140Z,54.73
2019-04-25T11:08:41.700Z,54.95
2019-04-25T11:13:45.403Z,54.03
2019-04-25T11:18:49.635Z,54.48
2019-04-25T11:23:55.163Z,54.75
2019-04-25T11:28:58.810Z,54.80
2019-04-25T11:34:03.567Z,55.30
2019-04-25T11:39:10.854Z,54.43
2019-04-25T11:44:14.799Z,55.20
2019-04-25T11:49:18.540Z,56.10
2019-04-25T11:54:22.150Z,55.90
2019-04-25T11:59:25.803Z,56.05
2019-04-25T12:04:29.547Z,56.73
2019-04-25T12:09:33.697Z,55.28
2019-04-25T12:14:37.328Z,56.47
2019-04-25T12:19:40.988Z,56.68
2019-04-25T12:24:45.802Z,56.13
2019-04-25T12:29:50.152Z,55.38
2019-04-25T12:34:53.784Z,56.05
2019-04-25T12:39:57.388Z,55.23
2019-04-25T12:45:04.076Z,55.90
2019-04-25T12:50:08.698Z,55.92
2019-04-25T12:55:14.579Z,55.65
2019-04-25T13:05:24.456Z,60.12
2019-04-25T13:10:28.196Z,58.50
2019-04-25T13:15:33.438Z,57.85
2019-04-25T13:20:37.357Z,58.02
2019-04-25T13:25:40.992Z,58.13
2019-04-25T13:31:04.123Z,58.12
2019-04-25T13:36:06.194Z,58.42
2019-04-25T13:41:19.229Z,58.02
2019-04-25T13:46:25.172Z,57.08
2019-04-25T13:51:28.399Z,56.68
2019-04-25T13:56:33.399Z,56.92
2019-04-25T14:01:37.571Z,56.63
2019-04-25T14:06:41.229Z,56.55
2019-04-25T14:11:44.837Z,57.38
2019-04-25T14:17:04.897Z,56.55
2019-04-25T14:22:07.544Z,56.68
2019-04-25T14:27:11.739Z,56.83
2019-04-25T14:32:16.135Z,56.65
2019-04-25T14:37:19.871Z,55.70
2019-04-25T14:42:24.444Z,57.53
2019-04-25T14:47:28.223Z,56.75
2019-04-25T14:52:32.048Z,55.70
2019-04-25T14:57:35.807Z,56.08
2019-04-25T15:02:39.489Z,56.42
2019-04-25T15:07:43.139Z,56.40
2019-04-25T15:12:46.867Z,56.83
2019-04-25T15:17:50.699Z,57.53
2019-04-25T15:22:54.358Z,56.95
2019-04-25T15:27:58.012Z,57.98
2019-04-25T15:33:02.085Z,57.50
2019-04-25T15:38:07.501Z,56.75
2019-04-25T15:43:29.039Z,56.55
2019-04-25T15:48:33.264Z,56.37
2019-04-25T15:53:36.993Z,57.65
2019-04-25T15:58:41.607Z,56.88
2019-04-25T16:03:45.359Z,55.65
2019-04-25T16:08:49.386Z,56.83
2019-04-25T16:13:53.311Z,56.95
2019-04-25T16:18:57.237Z,57.60
2019-04-25T16:24:01.316Z,55.73
2019-04-25T16:29:05.454Z,55.65
2019-04-25T16:34:09.248Z,56.25
2019-04-25T16:39:20.587Z,56.75
2019-04-25T16:44:24.403Z,56.20
2019-04-25T16:49:29.849Z,56.50
2019-04-25T16:54:33.858Z,57.17
2019-04-25T16:59:37.758Z,56.00
2019-04-25T17:04:41.722Z,56.37
2019-04-25T17:09:45.531Z,57.03
2019-04-25T17:14:56.833Z,56.02
2019-04-25T17:20:02.232Z,56.88
2019-04-25T17:25:06.663Z,59.23
2019-04-25T17:30:11.795Z,56.60
2019-04-25T17:35:29.140Z,56.23
2019-04-25T17:40:33.848Z,65.97
2019-04-25T17:45:37.569Z,62.80
2019-04-25T17:50:41.785Z,59.77
2019-04-25T17:55:45.380Z,60.73
2019-04-25T18:00:49.223Z,55.73
2019-04-25T18:05:53.547Z,57.60
2019-04-25T18:10:57.314Z,57.62
2019-04-25T18:16:05.128Z,57.83
2019-04-25T18:21:08.762Z,58.63
2019-04-25T18:26:14.040Z,57.23
2019-04-25T18:31:17.737Z,60.48
2019-04-25T18:36:41.227Z,56.28
2019-04-25T18:42:01.612Z,58.42
2019-04-25T18:47:05.520Z,56.55
2019-04-25T18:52:13.360Z,55.70
2019-04-25T18:57:18.716Z,55.55
2019-04-25T19:02:26.851Z,55.17
2019-04-25T19:07:30.864Z,54.58
2019-04-25T19:12:34.610Z,54.33
2019-04-25T19:17:38.849Z,54.85
2019-04-25T19:22:43.842Z,55.78
2019-04-25T19:27:47.675Z,57.48
2019-04-25T19:32:51.590Z,57.23
2019-04-25T19:37:56.381Z,57.10
2019-04-25T19:43:07.483Z,57.15
2019-04-25T19:48:11.202Z,57.38
2019-04-25T19:53:14.904Z,56.55
2019-04-25T19:58:18.695Z,57.25
2019-04-25T20:03:26.667Z,57.10
2019-04-25T20:08:31.908Z,55.90
2019-04-25T20:13:35.714Z,56.58
2019-04-25T20:18:39.301Z,56.68
2019-04-25T20:23:43.616Z,57.35
2019-04-25T20:28:48.476Z,55.35
2019-04-25T20:34:05.148Z,56.33
2019-04-25T20:38:57.527Z,56.98
2019-04-25T20:44:01.089Z,56.15
2019-04-25T20:49:04.732Z,56.18
2019-04-25T20:54:08.435Z,56.60
2019-04-25T20:59:12.040Z,58.00
2019-04-25T21:04:19.869Z,55.63
2019-04-25T21:09:23.636Z,57.98
2019-04-25T21:14:31.740Z,57.27
2019-04-25T21:19:39.552Z,57.13
2019-04-25T21:24:43.165Z,60.48
2019-04-25T21:29:46.899Z,59.75
2019-04-25T21:34:50.758Z,57.17
2019-04-25T21:39:57.277Z,55.60
2019-04-25T21:45:02.713Z,54.77
2019-04-25T21:50:07.431Z,54.58
2019-04-25T21:55:11.488Z,54.73
2019-04-25T22:00:17.580Z,55.30
2019-04-25T22:05:21.516Z,54.17
2019-04-25T22:10:26.456Z,54.83
2019-04-25T22:15:30.163Z,55.63
2019-04-25T22:20:34.216Z,54.87
2019-04-25T22:25:37.963Z,55.20
2019-04-25T22:30:43.870Z,55.12
2019-04-25T22:35:49.128Z,54.73
2019-04-25T22:40:53.668Z,55.28
2019-04-25T22:45:57.628Z,55.23
2019-04-25T22:51:01.747Z,54.67
2019-04-25T22:56:05.443Z,54.42
2019-04-25T23:01:11.239Z,53.42
2019-04-25T23:06:14.977Z,54.30
2019-04-25T23:11:18.623Z,52.58
2019-04-25T23:16:22.507Z,52.78
2019-04-25T23:21:26.143Z,54.65
2019-04-25T23:26:31.435Z,56.35
2019-04-25T23:31:39.107Z,55.20
2019-04-25T23:36:42.996Z,54.65
2019-04-25T23:41:46.598Z,53.25
2019-04-25T23:46:50.303Z,54.63
2019-04-25T23:51:53.888Z,54.25
2019-04-25T23:56:57.598Z,54.33
